createdAt,value
2017-02-22T00:00:37.709Z,0
2017-02-22T00:01:48.077Z,0
2017-02-22T00:02:58.371Z,0
2017-02-22T00:04:08.816Z,0
2017-02-22T00:05:18.914Z,0
2017-02-22T00:06:28.377Z,0
2017-02-22T00:07:38.291Z,0
2017-02-22T00:08:48.600Z,0
2017-02-22T00:09:58.927Z,0
2017-02-22T00:11:08.675Z,0
2017-02-22T00:12:18.992Z,0
2017-02-22T00:13:28.851Z,0
2017-02-22T00:14:39.164Z,0
2017-02-22T00:15:48.623Z,0
2017-02-22T00:16:58.792Z,0
2017-02-22T00:18:08.709Z,0
2017-02-22T00:19:19.044Z,0
2017-02-22T00:20:28.888Z,0
2017-02-22T00:21:39.177Z,0
2017-02-22T00:22:49.325Z,0
2017-02-22T00:23:59.187Z,0
2017-02-22T00:25:09.053Z,0
2017-02-22T00:26:18.947Z,0
2017-02-22T00:27:29.220Z,0
2017-02-22T00:28:39.724Z,0
2017-02-22T00:29:49.980Z,0
2017-02-22T00:30:59.911Z,0
2017-02-22T00:32:09.813Z,0
2017-02-22T00:33:19.697Z,0
2017-02-22T00:34:29.854Z,0
2017-02-22T00:35:39.718Z,0
2017-02-22T00:36:49.306Z,0
2017-02-22T00:37:58.809Z,0
2017-02-22T00:39:08.672Z,0
2017-02-22T00:40:18.900Z,0
2017-02-22T00:41:28.346Z,0
2017-02-22T00:42:38.470Z,0
2017-02-22T00:43:48.361Z,0
2017-02-22T00:44:58.657Z,0
2017-02-22T00:46:09.182Z,0
2017-02-22T00:47:19.446Z,0
2017-02-22T00:48:29.292Z,0
2017-02-22T00:49:39.558Z,0
2017-02-22T00:50:49.520Z,0
2017-02-22T00:52:00.182Z,0
2017-02-22T00:53:10.037Z,0
2017-02-22T00:54:20.176Z,0
2017-02-22T00:55:30.438Z,0
2017-02-22T00:56:39.888Z,0
2017-02-22T00:57:50.064Z,0
2017-02-22T00:58:59.930Z,0
2017-02-22T01:00:09.857Z,0
2017-02-22T01:01:20.182Z,0
2017-02-22T01:02:30.096Z,0
2017-02-22T01:03:40.219Z,0
2017-02-22T01:04:50.496Z,0
2017-02-22T01:06:00.744Z,0
2017-02-22T01:07:10.626Z,0
2017-02-22T01:08:20.088Z,0
2017-02-22T01:09:30.274Z,0
2017-02-22T01:10:40.117Z,0
2017-02-22T01:11:50.574Z,0
2017-02-22T01:12:59.670Z,0
2017-02-22T01:14:09.605Z,0
2017-02-22T01:15:20.165Z,0
2017-02-22T01:16:30.025Z,0
2017-02-22T01:17:39.481Z,0
2017-02-22T01:18:49.834Z,0
2017-02-22T01:20:00.169Z,0
2017-02-22T01:21:10.300Z,0
2017-02-22T01:22:20.272Z,0
2017-02-22T01:23:30.194Z,0
2017-02-22T01:24:40.552Z,0
2017-02-22T01:25:50.865Z,0
2017-02-22T01:27:01.423Z,0
2017-02-22T01:28:11.771Z,0
2017-02-22T01:29:22.051Z,0
2017-02-22T01:30:31.940Z,0
2017-02-22T01:31:42.188Z,0
2017-02-22T01:32:52.347Z,0
2017-02-22T01:34:02.437Z,0
2017-02-22T01:35:12.336Z,0
2017-02-22T01:36:22.626Z,0
2017-02-22T01:37:32.923Z,0
2017-02-22T01:38:43.083Z,0
2017-02-22T01:39:53.397Z,0
2017-02-22T01:41:03.250Z,0
2017-02-22T01:42:13.528Z,0
2017-02-22T01:43:23.915Z,0
2017-02-22T01:44:34.415Z,0
2017-02-22T01:45:44.782Z,0
2017-02-22T01:46:54.625Z,0
2017-02-22T01:48:04.544Z,0
2017-02-22T01:49:14.807Z,0
2017-02-22T01:50:25.080Z,0
2017-02-22T01:51:35.435Z,0
2017-02-22T01:53:37.192Z,0
2017-02-22T01:54:47.589Z,0
2017-02-22T01:55:57.806Z,0
2017-02-22T01:57:07.272Z,0
2017-02-22T01:58:17.527Z,0
2017-02-22T01:59:27.945Z,0
2017-02-22T02:00:38.306Z,0
2017-02-22T02:01:48.019Z,0
2017-02-22T02:02:57.923Z,0
2017-02-22T02:04:07.767Z,0
2017-02-22T02:05:17.637Z,0
2017-02-22T02:06:27.499Z,0
2017-02-22T02:07:37.731Z,0
2017-02-22T02:08:47.988Z,0
2017-02-22T02:09:57.863Z,0
2017-02-22T02:11:08.134Z,0
2017-02-22T02:12:18.437Z,0
2017-02-22T02:13:28.548Z,0
2017-02-22T02:14:38.795Z,0
2017-02-22T02:15:49.127Z,0
2017-02-22T02:16:58.970Z,0
2017-02-22T02:18:08.831Z,0
2017-02-22T02:19:18.552Z,0
2017-02-22T02:20:28.846Z,0
2017-02-22T02:21:38.712Z,0
2017-02-22T02:22:48.566Z,0
2017-02-22T02:23:58.961Z,0
2017-02-22T02:25:09.552Z,0
2017-02-22T02:26:19.797Z,0
2017-02-22T02:27:28.534Z,0
2017-02-22T02:28:38.007Z,0
2017-02-22T02:29:47.867Z,0
2017-02-22T02:30:58.379Z,0
2017-02-22T02:32:08.950Z,0
2017-02-22T02:34:21.957Z,0
2017-02-22T02:35:30.765Z,0
2017-02-22T02:36:39.749Z,0
2017-02-22T02:37:48.472Z,0
2017-02-22T02:38:57.340Z,0
2017-02-22T02:40:06.082Z,0
2017-02-22T02:41:14.840Z,0
2017-02-22T02:42:23.819Z,0
2017-02-22T02:43:32.548Z,0
2017-02-22T02:44:42.203Z,0
2017-02-22T02:45:50.937Z,0
2017-02-22T02:46:59.673Z,0
2017-02-22T02:48:09.157Z,0
2017-02-22T02:49:17.876Z,0
2017-02-22T02:50:26.607Z,0
2017-02-22T02:51:35.371Z,0
2017-02-22T02:52:44.094Z,0
2017-02-22T02:53:53.076Z,0
2017-02-22T02:55:01.808Z,0
2017-02-22T02:56:10.545Z,0
2017-02-22T02:57:19.769Z,0
2017-02-22T02:58:28.973Z,0
2017-02-22T02:59:38.380Z,0
2017-02-22T03:00:47.123Z,0
2017-02-22T03:01:55.845Z,0
2017-02-22T03:03:05.000Z,0
2017-02-22T03:04:13.821Z,0
2017-02-22T03:05:22.840Z,0
2017-02-22T03:06:32.369Z,0
2017-02-22T03:07:41.108Z,0
2017-02-22T03:08:49.841Z,0
2017-02-22T03:09:58.976Z,0
2017-02-22T03:11:08.769Z,0
2017-02-22T03:12:17.486Z,0
2017-02-22T03:13:26.196Z,0
2017-02-22T03:14:34.920Z,0
2017-02-22T03:15:43.636Z,0
2017-02-22T03:16:53.093Z,0
2017-02-22T03:18:02.215Z,0
2017-02-22T03:19:11.339Z,0
2017-02-22T03:20:20.164Z,0
2017-02-22T03:21:28.913Z,0
2017-02-22T03:22:38.285Z,0
2017-02-22T03:23:46.996Z,0
2017-02-22T03:24:55.764Z,0
2017-02-22T03:26:05.722Z,0
2017-02-22T03:27:14.463Z,0
2017-02-22T03:28:23.421Z,0
2017-02-22T03:29:32.143Z,0
2017-02-22T03:30:40.855Z,0
2017-02-22T03:31:49.586Z,0
2017-02-22T03:32:58.349Z,0
2017-02-22T03:34:07.810Z,0
2017-02-22T03:35:17.407Z,0
2017-02-22T03:36:26.131Z,0
2017-02-22T03:37:35.258Z,0
2017-02-22T03:38:43.998Z,0
2017-02-22T03:39:52.997Z,0
2017-02-22T03:41:01.863Z,0
2017-02-22T03:42:10.996Z,0
2017-02-22T03:43:20.186Z,0
2017-02-22T03:44:28.899Z,0
2017-02-22T03:45:37.897Z,0
2017-02-22T03:46:47.445Z,0
2017-02-22T03:47:56.253Z,0
2017-02-22T03:49:05.044Z,0
2017-02-22T03:50:13.806Z,0
2017-02-22T03:51:22.781Z,0
2017-02-22T03:52:31.555Z,0
2017-02-22T03:53:40.674Z,0
2017-02-22T03:54:49.828Z,0
2017-02-22T03:55:58.946Z,0
2017-02-22T03:57:07.984Z,0
2017-02-22T03:58:16.730Z,0
2017-02-22T03:59:25.457Z,0
2017-02-22T04:00:34.606Z,0
2017-02-22T04:01:43.329Z,0
2017-02-22T04:02:52.372Z,0
2017-02-22T04:04:01.108Z,0
2017-02-22T04:05:10.641Z,0
2017-02-22T04:06:19.368Z,0
2017-02-22T04:07:28.548Z,0
2017-02-22T04:08:37.953Z,0
2017-02-22T04:09:46.678Z,0
2017-02-22T04:10:55.406Z,0
2017-02-22T04:12:04.147Z,0
2017-02-22T04:13:12.878Z,0
2017-02-22T04:14:22.382Z,0
2017-02-22T04:15:31.102Z,0
2017-02-22T04:16:40.248Z,0
2017-02-22T04:17:48.964Z,0
2017-02-22T04:18:58.101Z,0
2017-02-22T04:20:07.086Z,0
2017-02-22T04:21:15.841Z,0
2017-02-22T04:22:24.565Z,0
2017-02-22T04:23:33.698Z,0
2017-02-22T04:24:42.418Z,0
2017-02-22T04:25:51.516Z,0
2017-02-22T04:27:00.726Z,0
2017-02-22T04:28:09.459Z,0
2017-02-22T04:29:18.200Z,0
2017-02-22T04:30:26.966Z,0
2017-02-22T04:31:35.945Z,0
2017-02-22T04:32:44.706Z,0
2017-02-22T04:33:53.855Z,0
2017-02-22T04:35:02.584Z,0
2017-02-22T04:36:11.304Z,0
2017-02-22T04:37:20.292Z,0
2017-02-22T04:38:29.400Z,0
2017-02-22T04:39:38.157Z,0
2017-02-22T04:40:47.346Z,0
2017-02-22T04:41:56.099Z,0
2017-02-22T04:43:05.109Z,0
2017-02-22T04:44:13.876Z,0
2017-02-22T04:45:22.614Z,0
2017-02-22T04:46:31.791Z,0
2017-02-22T04:47:40.511Z,0
2017-02-22T04:48:49.509Z,0
2017-02-22T04:49:58.291Z,0
2017-02-22T04:51:07.013Z,0
2017-02-22T04:52:16.181Z,0
2017-02-22T04:53:24.926Z,0
2017-02-22T04:54:34.481Z,0
2017-02-22T04:55:43.206Z,0
2017-02-22T04:56:52.352Z,0
2017-02-22T04:58:01.125Z,0
2017-02-22T04:59:09.860Z,0
2017-02-22T05:00:18.925Z,0
2017-02-22T05:01:28.078Z,0
2017-02-22T05:02:36.821Z,0
2017-02-22T05:03:45.958Z,0
2017-02-22T05:04:54.710Z,0
2017-02-22T05:06:03.705Z,0
2017-02-22T05:07:12.847Z,0
2017-02-22T05:08:21.566Z,0
2017-02-22T05:09:30.732Z,0
2017-02-22T05:10:39.490Z,0
2017-02-22T05:11:48.477Z,0
2017-02-22T05:12:57.206Z,0
2017-02-22T05:14:05.978Z,0
2017-02-22T05:15:14.709Z,0
2017-02-22T05:16:23.853Z,0
2017-02-22T05:17:32.865Z,0
2017-02-22T05:18:42.023Z,0
2017-02-22T05:19:50.792Z,0
2017-02-22T05:20:59.921Z,0
2017-02-22T05:22:08.660Z,0
2017-02-22T05:23:18.038Z,0
2017-02-22T05:24:26.806Z,0
2017-02-22T05:25:36.168Z,0
2017-02-22T05:26:45.433Z,0
2017-02-22T05:27:54.208Z,0
2017-02-22T05:29:03.599Z,0
2017-02-22T05:30:12.393Z,0
2017-02-22T05:31:21.216Z,0
2017-02-22T05:32:30.553Z,0
2017-02-22T05:33:39.727Z,0
2017-02-22T05:34:49.180Z,0
2017-02-22T05:35:57.949Z,0
2017-02-22T05:37:06.784Z,0
2017-02-22T05:38:15.997Z,0
2017-02-22T05:39:24.743Z,0
2017-02-22T05:40:33.715Z,0
2017-02-22T05:41:42.460Z,0
2017-02-22T05:42:51.634Z,0
2017-02-22T05:44:00.892Z,0
2017-02-22T05:45:09.621Z,0
2017-02-22T05:46:18.635Z,0
2017-02-22T05:47:27.768Z,0
2017-02-22T05:48:36.913Z,0
2017-02-22T05:49:46.624Z,0
2017-02-22T05:50:55.778Z,0
2017-02-22T05:52:04.797Z,0
2017-02-22T05:53:13.527Z,0
2017-02-22T05:54:22.688Z,0
2017-02-22T05:55:31.409Z,0
2017-02-22T05:56:40.297Z,0
2017-02-22T05:57:49.708Z,0
2017-02-22T05:58:58.440Z,0
2017-02-22T06:00:07.164Z,0
2017-02-22T06:01:15.890Z,0
2017-02-22T06:02:24.634Z,0
2017-02-22T06:03:33.625Z,0
2017-02-22T06:04:42.358Z,0
2017-02-22T06:05:51.543Z,0
2017-02-22T06:07:00.789Z,0
2017-02-22T06:08:09.543Z,0
2017-02-22T06:09:18.540Z,0
2017-02-22T06:10:27.720Z,0
2017-02-22T06:11:36.437Z,5
2017-02-22T06:12:45.565Z,5
2017-02-22T06:13:54.308Z,5
2017-02-22T06:15:03.379Z,5
2017-02-22T06:16:12.198Z,5
2017-02-22T06:17:20.951Z,5
2017-02-22T06:18:29.676Z,5
2017-02-22T06:19:38.420Z,10
2017-02-22T06:20:47.472Z,10
2017-02-22T06:21:56.226Z,10
2017-02-22T06:23:04.978Z,10
2017-02-22T06:24:14.125Z,10
2017-02-22T06:25:22.895Z,10
2017-02-22T06:26:31.881Z,15
2017-02-22T06:27:41.176Z,15
2017-02-22T06:28:50.324Z,15
2017-02-22T06:29:59.074Z,20
2017-02-22T06:31:07.797Z,20
2017-02-22T06:32:16.783Z,25
2017-02-22T06:33:25.941Z,25
2017-02-22T06:34:35.107Z,30
2017-02-22T06:35:43.889Z,30
2017-02-22T06:36:52.670Z,25
2017-02-22T06:38:02.069Z,30
2017-02-22T06:39:11.218Z,25
2017-02-22T06:40:19.973Z,25
2017-02-22T06:41:29.215Z,30
2017-02-22T06:42:37.948Z,30
2017-02-22T06:43:47.511Z,35
2017-02-22T06:44:56.232Z,40
2017-02-22T06:46:04.975Z,35
2017-02-22T06:47:13.719Z,45
2017-02-22T06:48:22.480Z,45
2017-02-22T06:49:31.512Z,55
2017-02-22T06:50:40.370Z,55
2017-02-22T06:51:49.984Z,60
2017-02-22T06:52:58.770Z,65
2017-02-22T06:54:08.018Z,65
2017-02-22T06:55:17.517Z,60
2017-02-22T06:56:26.344Z,60
2017-02-22T06:57:35.114Z,65
2017-02-22T06:58:43.996Z,55
2017-02-22T06:59:52.737Z,55
2017-02-22T07:01:02.144Z,50
2017-02-22T07:02:11.295Z,45
2017-02-22T07:03:20.520Z,45
2017-02-22T07:04:30.077Z,55
2017-02-22T07:05:39.659Z,45
2017-02-22T07:06:48.662Z,45
2017-02-22T07:07:57.393Z,50
2017-02-22T07:09:06.554Z,55
2017-02-22T07:10:16.136Z,50
2017-02-22T07:11:24.885Z,45
2017-02-22T07:12:34.296Z,45
2017-02-22T07:13:43.026Z,50
2017-02-22T07:14:51.762Z,65
2017-02-22T07:16:00.514Z,60
2017-02-22T07:17:09.680Z,65
2017-02-22T07:18:18.705Z,75
2017-02-22T07:19:27.435Z,70
2017-02-22T07:20:36.184Z,80
2017-02-22T07:21:45.341Z,75
2017-02-22T07:22:54.091Z,95
2017-02-22T07:24:03.081Z,100
2017-02-22T07:25:11.834Z,110
2017-02-22T07:26:20.568Z,125
2017-02-22T07:27:29.702Z,140
2017-02-22T07:28:38.857Z,150
2017-02-22T07:29:47.925Z,160
2017-02-22T07:30:57.097Z,165
2017-02-22T07:32:05.858Z,160
2017-02-22T07:33:14.581Z,140
2017-02-22T07:34:23.314Z,140
2017-02-22T07:35:32.299Z,140
2017-02-22T07:36:41.039Z,140
2017-02-22T07:37:50.629Z,135
2017-02-22T07:38:59.476Z,135
2017-02-22T07:40:09.056Z,145
2017-02-22T07:41:18.063Z,160
2017-02-22T07:42:26.800Z,175
2017-02-22T07:43:35.557Z,180
2017-02-22T07:44:44.314Z,180
2017-02-22T07:45:53.072Z,175
2017-02-22T07:47:02.485Z,185
2017-02-22T07:48:11.231Z,185
2017-02-22T07:49:19.986Z,190
2017-02-22T07:50:28.726Z,190
2017-02-22T07:51:37.462Z,190
2017-02-22T07:52:46.426Z,185
2017-02-22T07:53:55.141Z,165
2017-02-22T07:55:03.900Z,145
2017-02-22T07:56:13.174Z,130
2017-02-22T07:57:22.458Z,95
2017-02-22T07:58:31.858Z,95
2017-02-22T07:59:40.626Z,90
2017-02-22T08:00:49.357Z,80
2017-02-22T08:01:58.105Z,75
2017-02-22T08:03:06.846Z,95
2017-02-22T08:04:15.838Z,115
2017-02-22T08:05:24.706Z,100
2017-02-22T08:06:33.917Z,105
2017-02-22T08:07:43.065Z,125
2017-02-22T08:08:52.222Z,120
2017-02-22T08:10:01.671Z,135
2017-02-22T08:11:11.266Z,135
2017-02-22T08:12:20.416Z,155
2017-02-22T08:13:29.607Z,195
2017-02-22T08:14:39.146Z,215
2017-02-22T08:15:48.141Z,230
2017-02-22T08:16:56.877Z,265
2017-02-22T08:18:05.610Z,260
2017-02-22T08:19:14.774Z,230
2017-02-22T08:20:23.523Z,225
2017-02-22T08:21:32.526Z,170
2017-02-22T08:22:41.675Z,170
2017-02-22T08:23:50.444Z,180
2017-02-22T08:24:59.612Z,190
2017-02-22T08:26:08.363Z,205
2017-02-22T08:27:17.360Z,200
2017-02-22T08:28:26.507Z,175
2017-02-22T08:29:35.283Z,140
2017-02-22T08:30:45.033Z,145
2017-02-22T08:31:53.807Z,175
2017-02-22T08:33:03.667Z,170
2017-02-22T08:34:12.415Z,180
2017-02-22T08:35:21.587Z,175
2017-02-22T08:36:30.331Z,190
2017-02-22T08:37:39.097Z,180
2017-02-22T08:38:48.480Z,200
2017-02-22T08:39:57.215Z,205
2017-02-22T08:41:06.400Z,195
2017-02-22T08:42:15.229Z,195
2017-02-22T08:43:24.007Z,190
2017-02-22T08:44:32.988Z,200
2017-02-22T08:45:41.715Z,235
2017-02-22T08:46:50.455Z,215
2017-02-22T08:47:59.175Z,255
2017-02-22T08:49:07.934Z,275
2017-02-22T08:50:17.046Z,300
2017-02-22T08:51:26.580Z,315
2017-02-22T08:52:36.144Z,300
2017-02-22T08:53:45.301Z,305
2017-02-22T08:54:54.936Z,340
2017-02-22T08:56:03.920Z,355
2017-02-22T08:57:12.662Z,345
2017-02-22T08:58:21.816Z,325
2017-02-22T08:59:31.029Z,340
2017-02-22T09:00:40.183Z,325
2017-02-22T09:01:49.166Z,420
2017-02-22T09:02:58.298Z,400
2017-02-22T09:04:07.053Z,410
2017-02-22T09:05:16.239Z,390
2017-02-22T09:06:24.963Z,305
2017-02-22T09:07:34.382Z,310
2017-02-22T09:08:43.158Z,345
2017-02-22T09:09:51.876Z,375
2017-02-22T09:11:00.626Z,455
2017-02-22T09:12:10.199Z,515
2017-02-22T09:13:19.616Z,575
2017-02-22T09:14:28.740Z,560
2017-02-22T09:15:37.466Z,525
2017-02-22T09:16:46.206Z,550
2017-02-22T09:17:54.958Z,655
2017-02-22T09:19:04.342Z,790
2017-02-22T09:20:13.094Z,895
2017-02-22T09:21:21.840Z,885
2017-02-22T09:22:30.583Z,915
2017-02-22T09:23:39.501Z,775
2017-02-22T09:24:48.967Z,480
2017-02-22T09:25:58.563Z,465
2017-02-22T09:27:07.843Z,520
2017-02-22T09:28:17.007Z,505
2017-02-22T09:29:25.757Z,495
2017-02-22T09:30:34.768Z,500
2017-02-22T09:31:43.523Z,515
2017-02-22T09:32:52.296Z,570
2017-02-22T09:34:01.921Z,545
2017-02-22T09:35:11.069Z,495
2017-02-22T09:36:20.074Z,465
2017-02-22T09:37:28.826Z,475
2017-02-22T09:38:37.562Z,465
2017-02-22T09:39:46.307Z,445
2017-02-22T09:40:55.891Z,410
2017-02-22T09:42:05.547Z,400
2017-02-22T09:43:14.704Z,425
2017-02-22T09:44:23.859Z,510
2017-02-22T09:45:33.431Z,535
2017-02-22T09:46:42.195Z,560
2017-02-22T09:47:51.182Z,640
2017-02-22T09:48:59.931Z,695
2017-02-22T09:50:10.359Z,575
2017-02-22T09:51:19.489Z,430
2017-02-22T09:52:28.669Z,440
2017-02-22T09:53:38.918Z,460
2017-02-22T09:54:48.058Z,590
2017-02-22T09:55:57.220Z,735
2017-02-22T09:57:06.020Z,830
2017-02-22T09:58:15.597Z,585
2017-02-22T09:59:25.024Z,645
2017-02-22T10:00:34.237Z,655
2017-02-22T10:01:42.975Z,575
2017-02-22T10:02:52.578Z,525
2017-02-22T10:04:01.360Z,505
2017-02-22T10:05:10.759Z,495
2017-02-22T10:06:19.513Z,415
2017-02-22T10:07:28.252Z,445
2017-02-22T10:08:36.999Z,500
2017-02-22T10:09:46.160Z,560
2017-02-22T10:10:55.300Z,695
2017-02-22T10:12:04.492Z,705
2017-02-22T10:13:13.233Z,890
2017-02-22T10:14:22.025Z,575
2017-02-22T10:15:30.778Z,395
2017-02-22T10:16:40.339Z,625
2017-02-22T10:17:49.081Z,540
2017-02-22T10:18:58.342Z,320
2017-02-22T10:20:07.501Z,395
2017-02-22T10:21:16.260Z,460
2017-02-22T10:22:25.286Z,510
2017-02-22T10:23:34.439Z,540
2017-02-22T10:24:44.044Z,720
2017-02-22T10:25:52.795Z,830
2017-02-22T10:27:02.066Z,685
2017-02-22T10:28:11.865Z,860
2017-02-22T10:29:21.081Z,740
2017-02-22T10:30:29.830Z,865
2017-02-22T10:31:39.005Z,670
2017-02-22T10:32:47.775Z,585
2017-02-22T10:33:56.790Z,595
2017-02-22T10:35:05.565Z,455
2017-02-22T10:36:14.754Z,390
2017-02-22T10:37:23.494Z,380
2017-02-22T10:38:33.113Z,405
2017-02-22T10:39:42.511Z,440
2017-02-22T10:40:51.251Z,450
2017-02-22T10:42:00.400Z,485
2017-02-22T10:43:09.141Z,555
2017-02-22T10:44:18.348Z,500
2017-02-22T10:45:27.342Z,460
2017-02-22T10:46:36.537Z,465
2017-02-22T10:47:45.282Z,480
2017-02-22T10:48:54.445Z,470
2017-02-22T10:50:03.641Z,425
2017-02-22T10:51:12.608Z,415
2017-02-22T10:52:21.778Z,480
2017-02-22T10:53:30.516Z,460
2017-02-22T10:54:39.711Z,475
2017-02-22T10:55:48.998Z,570
2017-02-22T10:56:58.029Z,600
2017-02-22T10:58:06.793Z,660
2017-02-22T10:59:15.586Z,675
2017-02-22T11:00:24.816Z,710
2017-02-22T11:01:33.993Z,585
2017-02-22T11:02:43.052Z,500
2017-02-22T11:03:52.227Z,505
2017-02-22T11:05:00.976Z,435
2017-02-22T11:06:10.272Z,475
2017-02-22T11:07:19.448Z,400
2017-02-22T11:08:28.457Z,510
2017-02-22T11:09:37.662Z,395
2017-02-22T11:10:46.854Z,570
2017-02-22T11:11:56.010Z,600
2017-02-22T11:13:04.788Z,460
2017-02-22T11:14:14.214Z,445
2017-02-22T11:15:22.990Z,450
2017-02-22T11:16:32.601Z,395
2017-02-22T11:17:41.500Z,325
2017-02-22T11:18:50.676Z,485
2017-02-22T11:20:00.086Z,380
2017-02-22T11:21:08.873Z,355
2017-02-22T11:22:18.153Z,320
2017-02-22T11:23:27.312Z,325
2017-02-22T11:24:36.074Z,285
2017-02-22T11:25:45.096Z,290
2017-02-22T11:26:54.410Z,430
2017-02-22T11:28:03.664Z,530
2017-02-22T11:29:12.439Z,590
2017-02-22T11:30:21.192Z,780
2017-02-22T11:31:30.219Z,595
2017-02-22T11:32:38.998Z,575
2017-02-22T11:33:48.259Z,500
2017-02-22T11:34:57.036Z,605
2017-02-22T11:36:06.211Z,815
2017-02-22T11:37:15.684Z,820
2017-02-22T11:38:24.445Z,620
2017-02-22T11:39:33.216Z,640
2017-02-22T11:40:42.405Z,705
2017-02-22T11:41:51.591Z,870
2017-02-22T11:43:00.593Z,1190
2017-02-22T11:44:09.778Z,580
2017-02-22T11:45:18.513Z,560
2017-02-22T11:46:27.697Z,625
2017-02-22T11:47:36.489Z,635
2017-02-22T11:48:45.583Z,620
2017-02-22T11:49:54.359Z,690
2017-02-22T11:51:03.128Z,645
2017-02-22T11:52:12.287Z,535
2017-02-22T11:53:21.061Z,805
2017-02-22T11:54:30.548Z,925
2017-02-22T11:55:39.302Z,630
2017-02-22T11:56:48.087Z,785
2017-02-22T11:57:56.915Z,985
2017-02-22T11:59:06.598Z,820
2017-02-22T12:00:16.040Z,1310
2017-02-22T12:01:24.836Z,1950
2017-02-22T12:02:34.498Z,1490
2017-02-22T12:03:43.662Z,1540
2017-02-22T12:04:53.251Z,1490
2017-02-22T12:06:02.295Z,1410
2017-02-22T12:07:11.893Z,1180
2017-02-22T12:08:21.508Z,1435
2017-02-22T12:09:30.712Z,1460
2017-02-22T12:10:39.897Z,795
2017-02-22T12:11:48.943Z,1065
2017-02-22T12:12:58.141Z,1060
2017-02-22T12:14:07.486Z,1830
2017-02-22T12:15:16.699Z,1145
2017-02-22T12:16:25.467Z,2090
2017-02-22T12:17:34.881Z,1650
2017-02-22T12:18:43.655Z,1195
2017-02-22T12:19:52.433Z,2085
2017-02-22T12:21:01.620Z,2035
2017-02-22T12:22:10.418Z,2085
2017-02-22T12:23:19.642Z,2190
2017-02-22T12:24:28.433Z,1645
2017-02-22T12:25:37.203Z,1450
2017-02-22T12:26:46.471Z,1790
2017-02-22T12:27:55.871Z,1455
2017-02-22T12:29:04.666Z,1300
2017-02-22T12:30:13.888Z,1180
2017-02-22T12:31:22.641Z,1550
2017-02-22T12:32:31.880Z,1335
2017-02-22T12:33:41.341Z,1310
2017-02-22T12:34:50.102Z,1385
2017-02-22T12:35:58.905Z,845
2017-02-22T12:37:07.655Z,720
2017-02-22T12:38:17.245Z,905
2017-02-22T12:39:27.125Z,1290
2017-02-22T12:40:35.917Z,1490
2017-02-22T12:41:45.086Z,1710
2017-02-22T12:42:54.397Z,1255
2017-02-22T12:44:03.953Z,1010
2017-02-22T12:45:13.464Z,1100
2017-02-22T12:46:22.242Z,1360
2017-02-22T12:47:31.818Z,1030
2017-02-22T12:48:41.000Z,1080
2017-02-22T12:49:49.861Z,935
2017-02-22T12:50:58.914Z,1105
2017-02-22T12:52:08.914Z,1490
2017-02-22T12:53:18.730Z,1565
2017-02-22T12:54:27.927Z,1470
2017-02-22T12:55:36.690Z,1330
2017-02-22T12:56:46.511Z,950
2017-02-22T12:57:56.633Z,1355
2017-02-22T12:59:05.852Z,1125
2017-02-22T13:00:14.624Z,1540
2017-02-22T13:01:23.402Z,1460
2017-02-22T13:02:33.298Z,1070
2017-02-22T13:03:42.446Z,715
2017-02-22T13:04:51.618Z,580
2017-02-22T13:06:01.159Z,510
2017-02-22T13:07:10.294Z,585
2017-02-22T13:08:20.133Z,725
2017-02-22T13:09:29.305Z,830
2017-02-22T13:10:38.881Z,870
2017-02-22T13:11:47.653Z,815
2017-02-22T13:12:56.840Z,710
2017-02-22T13:14:06.244Z,620
2017-02-22T13:15:15.876Z,545
2017-02-22T13:16:24.612Z,480
2017-02-22T13:17:33.339Z,455
2017-02-22T13:18:42.475Z,505
2017-02-22T13:19:51.895Z,495
2017-02-22T13:21:01.473Z,455
2017-02-22T13:22:11.034Z,405
2017-02-22T13:23:20.599Z,415
2017-02-22T13:24:30.135Z,515
2017-02-22T13:25:39.941Z,305
2017-02-22T13:26:49.501Z,370
2017-02-22T13:27:58.670Z,305
2017-02-22T13:29:07.811Z,305
2017-02-22T13:30:17.391Z,275
2017-02-22T13:31:27.192Z,230
2017-02-22T13:32:37.518Z,225
2017-02-22T13:33:46.685Z,190
2017-02-22T13:34:55.802Z,180
2017-02-22T13:36:05.115Z,200
2017-02-22T13:37:14.132Z,245
2017-02-22T13:38:23.278Z,300
2017-02-22T13:39:32.436Z,315
2017-02-22T13:40:42.427Z,290
2017-02-22T13:41:51.959Z,295
2017-02-22T13:43:02.568Z,275
2017-02-22T13:44:12.513Z,260
2017-02-22T13:45:22.975Z,180
2017-02-22T13:46:33.314Z,145
2017-02-22T13:47:43.653Z,90
2017-02-22T13:48:54.288Z,110
2017-02-22T13:50:03.897Z,105
2017-02-22T13:51:14.285Z,105
2017-02-22T13:52:24.640Z,80
2017-02-22T13:53:35.031Z,100
2017-02-22T13:54:45.787Z,100
2017-02-22T13:55:56.168Z,120
2017-02-22T13:57:06.525Z,120
2017-02-22T13:58:16.077Z,165
2017-02-22T13:59:26.453Z,140
2017-02-22T14:00:36.285Z,110
2017-02-22T14:01:46.656Z,105
2017-02-22T14:02:56.247Z,50
2017-02-22T14:04:06.616Z,50
2017-02-22T14:05:16.965Z,75
2017-02-22T14:06:27.276Z,75
2017-02-22T14:07:37.593Z,80
2017-02-22T14:08:47.953Z,65
2017-02-22T14:09:58.305Z,60
2017-02-22T14:11:08.311Z,65
2017-02-22T14:12:18.893Z,50
2017-02-22T14:13:29.238Z,45
2017-02-22T14:14:39.593Z,65
2017-02-22T14:15:49.977Z,50
2017-02-22T14:16:59.916Z,45
2017-02-22T14:18:10.502Z,55
2017-02-22T14:19:20.851Z,75
2017-02-22T14:20:31.240Z,65
2017-02-22T14:21:41.197Z,70
2017-02-22T14:22:51.552Z,60
2017-02-22T14:24:01.757Z,70
2017-02-22T14:25:12.283Z,35
2017-02-22T14:26:22.631Z,35
2017-02-22T14:27:33.010Z,55
2017-02-22T14:28:43.486Z,65
2017-02-22T14:29:54.145Z,65
2017-02-22T14:31:04.473Z,75
2017-02-22T14:32:14.845Z,65
2017-02-22T14:33:25.227Z,60
2017-02-22T14:34:35.616Z,90
2017-02-22T14:35:46.224Z,105
2017-02-22T14:36:56.589Z,100
2017-02-22T14:38:06.958Z,110
2017-02-22T14:39:17.338Z,130
2017-02-22T14:40:27.715Z,60
2017-02-22T14:41:38.362Z,45
2017-02-22T14:42:48.698Z,30
2017-02-22T14:43:59.059Z,25
2017-02-22T14:45:09.044Z,25
2017-02-22T14:46:19.413Z,30
2017-02-22T14:47:30.063Z,35
2017-02-22T14:48:40.453Z,40
2017-02-22T14:49:50.875Z,50
2017-02-22T14:51:01.232Z,50
2017-02-22T14:52:11.333Z,45
2017-02-22T14:53:22.107Z,45
2017-02-22T14:54:32.478Z,65
2017-02-22T14:55:42.960Z,40
2017-02-22T14:56:52.925Z,35
2017-02-22T14:58:02.931Z,30
2017-02-22T14:59:13.590Z,35
2017-02-22T15:00:23.967Z,35
2017-02-22T15:01:34.350Z,35
2017-02-22T15:02:44.849Z,40
2017-02-22T15:03:55.214Z,40
2017-02-22T15:05:05.831Z,35
2017-02-22T15:06:15.787Z,40
2017-02-22T15:07:26.193Z,40
2017-02-22T15:08:36.576Z,55
2017-02-22T15:09:46.179Z,60
2017-02-22T15:10:56.869Z,60
2017-02-22T15:12:07.238Z,55
2017-02-22T15:13:17.187Z,45
2017-02-22T15:14:27.576Z,50
2017-02-22T15:15:37.965Z,45
2017-02-22T15:16:48.226Z,40
2017-02-22T15:17:58.604Z,45
2017-02-22T15:19:08.999Z,40
2017-02-22T15:20:19.456Z,40
2017-02-22T15:21:29.486Z,40
2017-02-22T15:22:40.342Z,40
2017-02-22T15:23:50.722Z,50
2017-02-22T15:25:01.109Z,65
2017-02-22T15:26:11.108Z,65
2017-02-22T15:27:21.538Z,75
2017-02-22T15:28:31.769Z,65
2017-02-22T15:29:41.342Z,60
2017-02-22T15:30:51.872Z,75
2017-02-22T15:32:02.204Z,60
2017-02-22T15:33:12.582Z,60
2017-02-22T15:34:23.189Z,45
2017-02-22T15:35:33.577Z,40
2017-02-22T15:36:43.556Z,40
2017-02-22T15:37:53.959Z,45
2017-02-22T15:39:04.320Z,45
2017-02-22T15:40:14.981Z,40
2017-02-22T15:41:25.085Z,35
2017-02-22T15:42:35.434Z,25
2017-02-22T15:43:45.406Z,25
2017-02-22T15:44:55.743Z,30
2017-02-22T15:46:06.335Z,30
2017-02-22T15:47:15.885Z,30
2017-02-22T15:48:26.265Z,25
2017-02-22T15:49:36.654Z,30
2017-02-22T15:50:47.047Z,30
2017-02-22T15:51:57.633Z,30
2017-02-22T15:53:08.006Z,25
2017-02-22T15:54:18.101Z,25
2017-02-22T15:55:28.552Z,15
2017-02-22T15:56:38.924Z,20
2017-02-22T15:57:49.553Z,20
2017-02-22T15:58:59.936Z,20
2017-02-22T16:00:10.323Z,20
2017-02-22T16:01:20.744Z,20
2017-02-22T16:02:31.134Z,25
2017-02-22T16:03:41.806Z,20
2017-02-22T16:04:51.879Z,20
2017-02-22T16:06:02.263Z,20
2017-02-22T16:07:12.647Z,20
2017-02-22T16:08:23.058Z,20
2017-02-22T16:09:33.334Z,20
2017-02-22T16:10:43.758Z,15
2017-02-22T16:11:54.150Z,15
2017-02-22T16:13:04.544Z,15
2017-02-22T16:14:14.969Z,15
2017-02-22T16:15:25.225Z,10
2017-02-22T16:16:35.648Z,10
2017-02-22T16:17:46.102Z,10
2017-02-22T16:18:56.076Z,10
2017-02-22T16:20:06.460Z,10
2017-02-22T16:21:17.119Z,5
2017-02-22T16:22:27.085Z,5
2017-02-22T16:23:37.124Z,5
2017-02-22T16:24:47.513Z,5
2017-02-22T16:25:57.538Z,5
2017-02-22T16:27:07.383Z,5
2017-02-22T16:28:17.955Z,5
2017-02-22T16:29:27.952Z,5